Cotter, AR

9:49 PM CST on January 25, 2015 (GMT -0600)
Cotter White River Bluff | Change Station
CLOSE
Current Station
Personal Weather Station
Location: Cotter, AR
Elevation: 535 ft
Nearby Weather Stations

Elev 535 ft 36.27 °N, 92.54 °W | Updated 13 minutes ago

Overcast
Overcast
40.1 °F
Feels Like 34 °F
N
9.0
Wind Variable Wind from WNW
Gusts 16.0 mph

Today
High -- | Low -- °F
--% Chance of Precip.
Yesterday
High -- | Low -- °F
Precip. -- in
7:16 AM 5:28 PM
Waxing Crescent, 38% visible
Pressure 30.01 in
Visibility 10.0 miles
Clouds Overcast 1600 ft
Windchill 34 °F
Dew Point 35 °F
Humidity 82%
Rainfall 0.11 in
Snow Depth Not available.
UV 0.0 out of 12
Pollen 2.20 out of 12
Air Quality Not available.
Flu Activity Not available.
METAR KFLP 260335Z 32011G16KT 10SM OVC016 04/M01 A3001 RMK AO1

More Conditions Fewer Conditions

Pressure 30.01 in
Visibility 10.0 miles
Clouds Overcast 1600 ft
Windchill 34 °F
Dew Point 35 °F
Humidity 82%
Rainfall 0.11 in
Snow Depth Not available.
UV 0.0 out of 12
Pollen 2.20 out of 12
Air Quality Not available.
Flu Activity Not available.
METAR KFLP 260335Z 32011G16KT 10SM OVC016 04/M01 A3001 RMK AO1

More Conditions Fewer Conditions

10-Day Weather Forecast

Almanac

Astronomy

Jan. 25, 2015 Rise Set
Actual Time
Civil Twilight
Nautical Twilight
Astronomical Twilight
Moon
Length of Visible Light
Length of Day
Tomorrow will be .
, % of the Moon is Illuminated

Today's Extremes

State Highs State Lows

Community

WunderPhotos

Upload Photos

1,790,106 photos uploaded!

WunderBlogs® & News

Nearby

Air Quality

  Air Quality AQ Index Pollutant
Not available.

Snow Depth

Station Depth Elevation

Earthquake Activity

City Distance Mag. Time & Date
Minimum magnitude displayed is 2.5.

Coastal Water Temperatures

Place Temperature

Nearby Weather Stations